sensor_id;sensor_type;location;lat;lon;timestamp;P1;durP1;ratioP1;P2;durP2;ratioP2
5245;SDS011;54412;51.206;6.888;2023-06-22T00:00:57;2.93;;;2.73;;
5245;SDS011;54412;51.206;6.888;2023-06-22T00:03:24;5.20;;;3.20;;
5245;SDS011;54412;51.206;6.888;2023-06-22T00:05:51;3.40;;;3.10;;
5245;SDS011;54412;51.206;6.888;2023-06-22T00:08:18;3.80;;;3.40;;
5245;SDS011;54412;51.206;6.888;2023-06-22T00:10:45;3.67;;;3.23;;
5245;SDS011;54412;51.206;6.888;2023-06-22T00:13:11;4.33;;;3.00;;
5245;SDS011;54412;51.206;6.888;2023-06-22T00:15:41;3.90;;;2.77;;
5245;SDS011;54412;51.206;6.888;2023-06-22T00:18:07;2.80;;;2.60;;
5245;SDS011;54412;51.206;6.888;2023-06-22T00:20:35;3.23;;;2.93;;
5245;SDS011;54412;51.206;6.888;2023-06-22T00:23:02;3.57;;;3.27;;
5245;SDS011;54412;51.206;6.888;2023-06-22T00:25:33;3.93;;;3.00;;
5245;SDS011;54412;51.206;6.888;2023-06-22T00:28:05;5.10;;;2.87;;
5245;SDS011;54412;51.206;6.888;2023-06-22T00:30:32;2.97;;;2.70;;
5245;SDS011;54412;51.206;6.888;2023-06-22T00:32:59;3.40;;;3.10;;
5245;SDS011;54412;51.206;6.888;2023-06-22T00:35:25;4.60;;;2.80;;
5245;SDS011;54412;51.206;6.888;2023-06-22T00:37:54;4.40;;;2.80;;
5245;SDS011;54412;51.206;6.888;2023-06-22T00:40:26;3.67;;;3.10;;
5245;SDS011;54412;51.206;6.888;2023-06-22T00:42:53;3.70;;;3.10;;
5245;SDS011;54412;51.206;6.888;2023-06-22T00:45:20;3.40;;;2.80;;
5245;SDS011;54412;51.206;6.888;2023-06-22T00:47:48;2.87;;;2.67;;
5245;SDS011;54412;51.206;6.888;2023-06-22T00:50:18;4.83;;;3.13;;
5245;SDS011;54412;51.206;6.888;2023-06-22T00:53:06;3.83;;;2.63;;
5245;SDS011;54412;51.206;6.888;2023-06-22T00:55:37;4.40;;;3.30;;
5245;SDS011;54412;51.206;6.888;2023-06-22T00:58:12;7.73;;;2.73;;
5245;SDS011;54412;51.206;6.888;2023-06-22T01:00:39;3.67;;;3.37;;
5245;SDS011;54412;51.206;6.888;2023-06-22T01:03:06;4.20;;;3.43;;
5245;SDS011;54412;51.206;6.888;2023-06-22T01:05:34;7.63;;;3.60;;
5245;SDS011;54412;51.206;6.888;2023-06-22T01:10:41;3.17;;;2.80;;
5245;SDS011;54412;51.206;6.888;2023-06-22T01:13:24;4.63;;;2.70;;
5245;SDS011;54412;51.206;6.888;2023-06-22T01:16:32;5.30;;;2.70;;
5245;SDS011;54412;51.206;6.888;2023-06-22T01:19:06;5.93;;;3.63;;
5245;SDS011;54412;51.206;6.888;2023-06-22T01:22:07;4.80;;;3.20;;
5245;SDS011;54412;51.206;6.888;2023-06-22T01:27:51;4.20;;;3.80;;
5245;SDS011;54412;51.206;6.888;2023-06-22T01:30:28;4.90;;;3.77;;
5245;SDS011;54412;51.206;6.888;2023-06-22T01:32:59;6.47;;;3.93;;
5245;SDS011;54412;51.206;6.888;2023-06-22T01:35:30;6.50;;;4.13;;
5245;SDS011;54412;51.206;6.888;2023-06-22T01:37:56;4.33;;;3.10;;
5245;SDS011;54412;51.206;6.888;2023-06-22T01:40:23;8.27;;;3.73;;
5245;SDS011;54412;51.206;6.888;2023-06-22T01:42:50;4.57;;;3.30;;
5245;SDS011;54412;51.206;6.888;2023-06-22T01:45:16;4.20;;;3.20;;
5245;SDS011;54412;51.206;6.888;2023-06-22T01:47:43;5.00;;;3.60;;
5245;SDS011;54412;51.206;6.888;2023-06-22T01:50:09;8.00;;;3.87;;
5245;SDS011;54412;51.206;6.888;2023-06-22T01:52:36;11.90;;;4.33;;
5245;SDS011;54412;51.206;6.888;2023-06-22T01:55:02;4.73;;;3.80;;
5245;SDS011;54412;51.206;6.888;2023-06-22T01:57:29;4.73;;;3.80;;
5245;SDS011;54412;51.206;6.888;2023-06-22T02:00:06;4.37;;;3.63;;
5245;SDS011;54412;51.206;6.888;2023-06-22T02:02:57;3.90;;;3.50;;
5245;SDS011;54412;51.206;6.888;2023-06-22T02:05:31;4.27;;;3.87;;
5245;SDS011;54412;51.206;6.888;2023-06-22T02:10:37;13.40;;;3.77;;
5245;SDS011;54412;51.206;6.888;2023-06-22T02:13:06;5.80;;;3.87;;
5245;SDS011;54412;51.206;6.888;2023-06-22T02:15:34;5.10;;;3.57;;
5245;SDS011;54412;51.206;6.888;2023-06-22T02:18:01;8.17;;;4.00;;
5245;SDS011;54412;51.206;6.888;2023-06-22T02:20:27;4.17;;;3.70;;
5245;SDS011;54412;51.206;6.888;2023-06-22T02:22:53;4.60;;;3.53;;
5245;SDS011;54412;51.206;6.888;2023-06-22T02:25:19;4.00;;;3.70;;
5245;SDS011;54412;51.206;6.888;2023-06-22T02:27:46;5.23;;;3.73;;
5245;SDS011;54412;51.206;6.888;2023-06-22T02:30:12;5.90;;;3.60;;
5245;SDS011;54412;51.206;6.888;2023-06-22T02:32:39;4.63;;;4.03;;
5245;SDS011;54412;51.206;6.888;2023-06-22T02:35:07;3.90;;;3.50;;
5245;SDS011;54412;51.206;6.888;2023-06-22T02:37:37;4.10;;;3.67;;
5245;SDS011;54412;51.206;6.888;2023-06-22T02:40:07;4.97;;;3.83;;
5245;SDS011;54412;51.206;6.888;2023-06-22T02:42:36;6.53;;;3.93;;
5245;SDS011;54412;51.206;6.888;2023-06-22T02:45:04;9.13;;;4.30;;
5245;SDS011;54412;51.206;6.888;2023-06-22T02:47:30;5.33;;;3.80;;
5245;SDS011;54412;51.206;6.888;2023-06-22T02:49:57;7.07;;;3.70;;
5245;SDS011;54412;51.206;6.888;2023-06-22T02:52:22;6.10;;;5.50;;
5245;SDS011;54412;51.206;6.888;2023-06-22T02:54:48;4.33;;;3.93;;
5245;SDS011;54412;51.206;6.888;2023-06-22T02:57:13;4.17;;;3.87;;
5245;SDS011;54412;51.206;6.888;2023-06-22T02:59:40;8.50;;;5.30;;
5245;SDS011;54412;51.206;6.888;2023-06-22T03:02:06;7.73;;;5.80;;
5245;SDS011;54412;51.206;6.888;2023-06-22T03:04:34;7.43;;;4.63;;
5245;SDS011;54412;51.206;6.888;2023-06-22T03:07:00;6.07;;;5.20;;
5245;SDS011;54412;51.206;6.888;2023-06-22T03:09:26;5.00;;;4.50;;
5245;SDS011;54412;51.206;6.888;2023-06-22T03:11:53;7.70;;;5.60;;
5245;SDS011;54412;51.206;6.888;2023-06-22T03:14:20;9.03;;;4.83;;
5245;SDS011;54412;51.206;6.888;2023-06-22T03:16:46;5.93;;;4.37;;
5245;SDS011;54412;51.206;6.888;2023-06-22T03:19:12;6.67;;;5.43;;
5245;SDS011;54412;51.206;6.888;2023-06-22T03:21:38;8.10;;;5.47;;
5245;SDS011;54412;51.206;6.888;2023-06-22T03:24:05;8.37;;;5.80;;
5245;SDS011;54412;51.206;6.888;2023-06-22T03:26:32;12.63;;;5.70;;
5245;SDS011;54412;51.206;6.888;2023-06-22T03:28:59;5.33;;;4.87;;
5245;SDS011;54412;51.206;6.888;2023-06-22T03:31:25;9.60;;;5.90;;
5245;SDS011;54412;51.206;6.888;2023-06-22T03:33:51;10.10;;;5.50;;
5245;SDS011;54412;51.206;6.888;2023-06-22T03:36:17;6.97;;;5.60;;
5245;SDS011;54412;51.206;6.888;2023-06-22T03:38:44;10.67;;;5.37;;
5245;SDS011;54412;51.206;6.888;2023-06-22T03:41:11;11.07;;;4.80;;
5245;SDS011;54412;51.206;6.888;2023-06-22T03:43:37;6.90;;;4.97;;
5245;SDS011;54412;51.206;6.888;2023-06-22T03:46:02;11.67;;;5.50;;
5245;SDS011;54412;51.206;6.888;2023-06-22T03:48:28;6.40;;;4.70;;
5245;SDS011;54412;51.206;6.888;2023-06-22T03:50:54;5.63;;;4.80;;
5245;SDS011;54412;51.206;6.888;2023-06-22T03:53:19;6.27;;;5.20;;
5245;SDS011;54412;51.206;6.888;2023-06-22T03:55:49;9.93;;;5.63;;
5245;SDS011;54412;51.206;6.888;2023-06-22T03:58:18;4.77;;;4.17;;
5245;SDS011;54412;51.206;6.888;2023-06-22T04:00:46;4.97;;;4.50;;
5245;SDS011;54412;51.206;6.888;2023-06-22T04:03:16;9.13;;;5.63;;
5245;SDS011;54412;51.206;6.888;2023-06-22T04:05:45;7.47;;;5.60;;
5245;SDS011;54412;51.206;6.888;2023-06-22T04:08:12;8.53;;;5.97;;
5245;SDS011;54412;51.206;6.888;2023-06-22T04:10:38;10.53;;;6.83;;
5245;SDS011;54412;51.206;6.888;2023-06-22T04:13:04;7.80;;;6.93;;
5245;SDS011;54412;51.206;6.888;2023-06-22T04:15:30;9.90;;;7.10;;
5245;SDS011;54412;51.206;6.888;2023-06-22T04:17:55;11.80;;;7.70;;
5245;SDS011;54412;51.206;6.888;2023-06-22T04:20:22;11.17;;;7.80;;
5245;SDS011;54412;51.206;6.888;2023-06-22T04:22:51;12.90;;;7.23;;
5245;SDS011;54412;51.206;6.888;2023-06-22T04:25:19;8.20;;;6.30;;
5245;SDS011;54412;51.206;6.888;2023-06-22T04:27:47;8.30;;;6.20;;
5245;SDS011;54412;51.206;6.888;2023-06-22T04:30:13;11.73;;;6.50;;
5245;SDS011;54412;51.206;6.888;2023-06-22T04:32:43;10.13;;;6.60;;
5245;SDS011;54412;51.206;6.888;2023-06-22T04:35:09;8.40;;;5.70;;
5245;SDS011;54412;51.206;6.888;2023-06-22T04:37:36;7.50;;;5.10;;
5245;SDS011;54412;51.206;6.888;2023-06-22T04:40:02;8.67;;;6.33;;
5245;SDS011;54412;51.206;6.888;2023-06-22T04:42:29;8.10;;;6.10;;
5245;SDS011;54412;51.206;6.888;2023-06-22T04:44:56;8.07;;;5.60;;
5245;SDS011;54412;51.206;6.888;2023-06-22T04:47:22;6.50;;;4.93;;
5245;SDS011;54412;51.206;6.888;2023-06-22T04:49:48;7.60;;;5.53;;
5245;SDS011;54412;51.206;6.888;2023-06-22T04:52:13;7.40;;;5.03;;
5245;SDS011;54412;51.206;6.888;2023-06-22T04:54:42;5.83;;;4.97;;
5245;SDS011;54412;51.206;6.888;2023-06-22T04:57:15;7.53;;;4.90;;
5245;SDS011;54412;51.206;6.888;2023-06-22T04:59:42;5.10;;;4.63;;
5245;SDS011;54412;51.206;6.888;2023-06-22T05:02:09;6.23;;;4.40;;
5245;SDS011;54412;51.206;6.888;2023-06-22T05:04:35;6.63;;;4.90;;
5245;SDS011;54412;51.206;6.888;2023-06-22T05:07:03;5.20;;;4.77;;
5245;SDS011;54412;51.206;6.888;2023-06-22T05:09:29;5.27;;;4.80;;
5245;SDS011;54412;51.206;6.888;2023-06-22T05:11:55;6.50;;;4.60;;
5245;SDS011;54412;51.206;6.888;2023-06-22T05:14:24;5.53;;;4.27;;
5245;SDS011;54412;51.206;6.888;2023-06-22T05:16:50;5.37;;;4.70;;
5245;SDS011;54412;51.206;6.888;2023-06-22T05:19:17;7.23;;;6.00;;
5245;SDS011;54412;51.206;6.888;2023-06-22T05:21:42;16.77;;;5.50;;
5245;SDS011;54412;51.206;6.888;2023-06-22T05:24:08;9.07;;;4.77;;
5245;SDS011;54412;51.206;6.888;2023-06-22T05:26:34;9.90;;;5.20;;
5245;SDS011;54412;51.206;6.888;2023-06-22T05:29:01;5.40;;;4.90;;
5245;SDS011;54412;51.206;6.888;2023-06-22T05:31:28;6.73;;;4.67;;
5245;SDS011;54412;51.206;6.888;2023-06-22T05:33:55;6.70;;;5.13;;
5245;SDS011;54412;51.206;6.888;2023-06-22T05:36:21;5.50;;;5.00;;
5245;SDS011;54412;51.206;6.888;2023-06-22T05:38:50;9.97;;;4.53;;
5245;SDS011;54412;51.206;6.888;2023-06-22T05:41:17;6.37;;;5.00;;
5245;SDS011;54412;51.206;6.888;2023-06-22T05:43:43;7.40;;;5.97;;
5245;SDS011;54412;51.206;6.888;2023-06-22T05:46:09;9.23;;;6.10;;
5245;SDS011;54412;51.206;6.888;2023-06-22T05:48:34;8.50;;;5.17;;
5245;SDS011;54412;51.206;6.888;2023-06-22T05:51:00;13.00;;;5.87;;
5245;SDS011;54412;51.206;6.888;2023-06-22T05:53:26;11.10;;;6.43;;
5245;SDS011;54412;51.206;6.888;2023-06-22T05:55:52;8.93;;;6.93;;
5245;SDS011;54412;51.206;6.888;2023-06-22T05:58:18;10.17;;;6.10;;
5245;SDS011;54412;51.206;6.888;2023-06-22T06:00:43;8.43;;;6.37;;
5245;SDS011;54412;51.206;6.888;2023-06-22T06:03:10;11.00;;;6.50;;
5245;SDS011;54412;51.206;6.888;2023-06-22T06:05:36;10.00;;;6.07;;
5245;SDS011;54412;51.206;6.888;2023-06-22T06:08:03;8.40;;;6.47;;
5245;SDS011;54412;51.206;6.888;2023-06-22T06:10:31;5.83;;;5.13;;
5245;SDS011;54412;51.206;6.888;2023-06-22T06:12:58;7.00;;;6.03;;
5245;SDS011;54412;51.206;6.888;2023-06-22T06:15:27;10.00;;;6.10;;
5245;SDS011;54412;51.206;6.888;2023-06-22T06:17:53;8.13;;;6.20;;
5245;SDS011;54412;51.206;6.888;2023-06-22T06:20:21;8.20;;;5.77;;
5245;SDS011;54412;51.206;6.888;2023-06-22T06:22:48;6.37;;;5.17;;
5245;SDS011;54412;51.206;6.888;2023-06-22T06:25:15;8.07;;;6.10;;
5245;SDS011;54412;51.206;6.888;2023-06-22T06:27:42;7.20;;;5.50;;
5245;SDS011;54412;51.206;6.888;2023-06-22T06:30:09;9.67;;;5.60;;
5245;SDS011;54412;51.206;6.888;2023-06-22T06:32:36;9.80;;;7.00;;
5245;SDS011;54412;51.206;6.888;2023-06-22T06:35:03;10.17;;;6.97;;
5245;SDS011;54412;51.206;6.888;2023-06-22T06:37:35;6.77;;;6.00;;
5245;SDS011;54412;51.206;6.888;2023-06-22T06:40:03;14.03;;;7.27;;
5245;SDS011;54412;51.206;6.888;2023-06-22T06:42:33;12.83;;;7.07;;
5245;SDS011;54412;51.206;6.888;2023-06-22T06:44:59;8.57;;;6.20;;
5245;SDS011;54412;51.206;6.888;2023-06-22T06:47:25;7.83;;;6.17;;
5245;SDS011;54412;51.206;6.888;2023-06-22T06:49:50;14.20;;;6.93;;
5245;SDS011;54412;51.206;6.888;2023-06-22T06:52:16;17.27;;;7.67;;
5245;SDS011;54412;51.206;6.888;2023-06-22T06:54:42;11.10;;;7.13;;
5245;SDS011;54412;51.206;6.888;2023-06-22T06:57:07;19.97;;;8.53;;
5245;SDS011;54412;51.206;6.888;2023-06-22T06:59:35;13.87;;;8.37;;
5245;SDS011;54412;51.206;6.888;2023-06-22T07:02:01;11.40;;;8.57;;
5245;SDS011;54412;51.206;6.888;2023-06-22T07:04:27;13.23;;;9.20;;
5245;SDS011;54412;51.206;6.888;2023-06-22T07:06:52;16.53;;;9.33;;
5245;SDS011;54412;51.206;6.888;2023-06-22T07:09:18;19.40;;;9.53;;
5245;SDS011;54412;51.206;6.888;2023-06-22T07:11:43;17.73;;;10.23;;
5245;SDS011;54412;51.206;6.888;2023-06-22T07:14:09;17.30;;;10.97;;
5245;SDS011;54412;51.206;6.888;2023-06-22T07:16:35;15.30;;;10.10;;
5245;SDS011;54412;51.206;6.888;2023-06-22T07:19:00;18.00;;;10.00;;
5245;SDS011;54412;51.206;6.888;2023-06-22T07:21:26;20.23;;;10.20;;
5245;SDS011;54412;51.206;6.888;2023-06-22T07:23:52;12.40;;;9.47;;
5245;SDS011;54412;51.206;6.888;2023-06-22T07:26:19;14.83;;;9.20;;
5245;SDS011;54412;51.206;6.888;2023-06-22T07:28:44;11.97;;;9.50;;
5245;SDS011;54412;51.206;6.888;2023-06-22T07:31:10;14.67;;;9.90;;
5245;SDS011;54412;51.206;6.888;2023-06-22T07:33:36;17.27;;;12.30;;
5245;SDS011;54412;51.206;6.888;2023-06-22T07:36:01;16.70;;;10.70;;
5245;SDS011;54412;51.206;6.888;2023-06-22T07:38:32;18.90;;;11.77;;
5245;SDS011;54412;51.206;6.888;2023-06-22T07:40:58;21.53;;;12.60;;
5245;SDS011;54412;51.206;6.888;2023-06-22T07:43:24;22.90;;;14.30;;
5245;SDS011;54412;51.206;6.888;2023-06-22T07:45:50;19.83;;;12.03;;
5245;SDS011;54412;51.206;6.888;2023-06-22T07:48:20;18.00;;;12.97;;
5245;SDS011;54412;51.206;6.888;2023-06-22T07:50:47;15.60;;;11.17;;
5245;SDS011;54412;51.206;6.888;2023-06-22T07:53:13;12.40;;;10.90;;
5245;SDS011;54412;51.206;6.888;2023-06-22T07:55:39;11.73;;;10.03;;
5245;SDS011;54412;51.206;6.888;2023-06-22T07:58:04;19.43;;;11.07;;
5245;SDS011;54412;51.206;6.888;2023-06-22T08:00:30;13.30;;;10.20;;
5245;SDS011;54412;51.206;6.888;2023-06-22T08:02:56;15.67;;;10.57;;
5245;SDS011;54412;51.206;6.888;2023-06-22T08:05:21;14.00;;;9.90;;
5245;SDS011;54412;51.206;6.888;2023-06-22T08:07:47;11.80;;;9.40;;
5245;SDS011;54412;51.206;6.888;2023-06-22T08:10:14;12.50;;;9.83;;
5245;SDS011;54412;51.206;6.888;2023-06-22T08:12:40;14.23;;;9.57;;
5245;SDS011;54412;51.206;6.888;2023-06-22T08:15:06;9.40;;;8.23;;
5245;SDS011;54412;51.206;6.888;2023-06-22T08:17:32;12.13;;;9.50;;
5245;SDS011;54412;51.206;6.888;2023-06-22T08:19:58;13.00;;;10.50;;
5245;SDS011;54412;51.206;6.888;2023-06-22T08:22:24;11.83;;;10.20;;
5245;SDS011;54412;51.206;6.888;2023-06-22T08:24:50;9.40;;;8.50;;
5245;SDS011;54412;51.206;6.888;2023-06-22T08:27:16;11.13;;;9.90;;
5245;SDS011;54412;51.206;6.888;2023-06-22T08:29:43;15.90;;;10.60;;
5245;SDS011;54412;51.206;6.888;2023-06-22T08:32:10;10.10;;;9.03;;
5245;SDS011;54412;51.206;6.888;2023-06-22T08:34:37;15.03;;;10.37;;
5245;SDS011;54412;51.206;6.888;2023-06-22T08:37:07;10.93;;;8.70;;
5245;SDS011;54412;51.206;6.888;2023-06-22T08:39:34;10.10;;;9.07;;
5245;SDS011;54412;51.206;6.888;2023-06-22T08:42:00;10.90;;;9.53;;
5245;SDS011;54412;51.206;6.888;2023-06-22T08:44:25;9.80;;;8.80;;
5245;SDS011;54412;51.206;6.888;2023-06-22T08:46:51;10.17;;;8.80;;
5245;SDS011;54412;51.206;6.888;2023-06-22T08:49:17;10.83;;;8.10;;
5245;SDS011;54412;51.206;6.888;2023-06-22T08:51:42;8.97;;;7.60;;
5245;SDS011;54412;51.206;6.888;2023-06-22T08:54:10;8.50;;;7.70;;
5245;SDS011;54412;51.206;6.888;2023-06-22T08:56:36;10.60;;;8.40;;
5245;SDS011;54412;51.206;6.888;2023-06-22T08:59:02;8.73;;;8.00;;
5245;SDS011;54412;51.206;6.888;2023-06-22T09:01:27;14.73;;;8.40;;
5245;SDS011;54412;51.206;6.888;2023-06-22T09:03:53;9.80;;;8.83;;
5245;SDS011;54412;51.206;6.888;2023-06-22T09:06:23;15.53;;;8.63;;
5245;SDS011;54412;51.206;6.888;2023-06-22T09:08:49;10.13;;;7.50;;
5245;SDS011;54412;51.206;6.888;2023-06-22T09:11:15;9.23;;;7.20;;
5245;SDS011;54412;51.206;6.888;2023-06-22T09:13:41;8.70;;;6.70;;
5245;SDS011;54412;51.206;6.888;2023-06-22T09:16:07;8.40;;;7.50;;
5245;SDS011;54412;51.206;6.888;2023-06-22T09:18:36;6.90;;;6.27;;
5245;SDS011;54412;51.206;6.888;2023-06-22T09:21:01;8.20;;;6.30;;
5245;SDS011;54412;51.206;6.888;2023-06-22T09:23:27;7.17;;;6.60;;
5245;SDS011;54412;51.206;6.888;2023-06-22T09:25:53;6.07;;;5.47;;
5245;SDS011;54412;51.206;6.888;2023-06-22T09:28:19;6.20;;;5.60;;
5245;SDS011;54412;51.206;6.888;2023-06-22T09:30:45;7.30;;;6.00;;
5245;SDS011;54412;51.206;6.888;2023-06-22T09:33:10;6.73;;;6.13;;
5245;SDS011;54412;51.206;6.888;2023-06-22T09:35:36;7.30;;;5.77;;
5245;SDS011;54412;51.206;6.888;2023-06-22T09:38:02;10.43;;;6.40;;
5245;SDS011;54412;51.206;6.888;2023-06-22T09:40:27;7.23;;;6.63;;
5245;SDS011;54412;51.206;6.888;2023-06-22T09:42:53;6.43;;;5.83;;
5245;SDS011;54412;51.206;6.888;2023-06-22T09:45:19;5.50;;;5.10;;
5245;SDS011;54412;51.206;6.888;2023-06-22T09:47:44;8.07;;;7.23;;
5245;SDS011;54412;51.206;6.888;2023-06-22T09:50:10;7.10;;;6.50;;
5245;SDS011;54412;51.206;6.888;2023-06-22T09:52:36;6.57;;;5.53;;
5245;SDS011;54412;51.206;6.888;2023-06-22T09:55:02;8.70;;;7.33;;
5245;SDS011;54412;51.206;6.888;2023-06-22T09:57:28;7.07;;;6.37;;
5245;SDS011;54412;51.206;6.888;2023-06-22T09:59:55;9.00;;;7.03;;
5245;SDS011;54412;51.206;6.888;2023-06-22T10:02:20;14.33;;;7.40;;
5245;SDS011;54412;51.206;6.888;2023-06-22T10:04:47;11.73;;;7.80;;
5245;SDS011;54412;51.206;6.888;2023-06-22T10:07:13;9.83;;;7.57;;
5245;SDS011;54412;51.206;6.888;2023-06-22T10:09:39;9.10;;;8.07;;
5245;SDS011;54412;51.206;6.888;2023-06-22T10:12:04;15.63;;;8.17;;
5245;SDS011;54412;51.206;6.888;2023-06-22T10:14:31;12.30;;;8.30;;
5245;SDS011;54412;51.206;6.888;2023-06-22T10:16:56;9.83;;;8.07;;
5245;SDS011;54412;51.206;6.888;2023-06-22T10:19:22;8.77;;;7.63;;
5245;SDS011;54412;51.206;6.888;2023-06-22T10:21:48;8.73;;;7.80;;
5245;SDS011;54412;51.206;6.888;2023-06-22T10:24:13;11.13;;;7.77;;
5245;SDS011;54412;51.206;6.888;2023-06-22T10:26:39;13.87;;;8.93;;
5245;SDS011;54412;51.206;6.888;2023-06-22T10:29:05;10.10;;;7.47;;
5245;SDS011;54412;51.206;6.888;2023-06-22T10:31:30;7.73;;;6.93;;
5245;SDS011;54412;51.206;6.888;2023-06-22T10:33:56;11.53;;;8.00;;
5245;SDS011;54412;51.206;6.888;2023-06-22T10:36:22;8.00;;;6.30;;
5245;SDS011;54412;51.206;6.888;2023-06-22T10:38:48;8.93;;;7.17;;
5245;SDS011;54412;51.206;6.888;2023-06-22T10:41:14;7.63;;;6.97;;
5245;SDS011;54412;51.206;6.888;2023-06-22T10:43:41;8.67;;;7.87;;
5245;SDS011;54412;51.206;6.888;2023-06-22T10:46:07;10.43;;;7.60;;
5245;SDS011;54412;51.206;6.888;2023-06-22T10:48:33;10.00;;;7.50;;
5245;SDS011;54412;51.206;6.888;2023-06-22T10:50:59;10.50;;;7.93;;
5245;SDS011;54412;51.206;6.888;2023-06-22T10:53:24;11.43;;;7.90;;
5245;SDS011;54412;51.206;6.888;2023-06-22T10:55:50;10.40;;;8.37;;
5245;SDS011;54412;51.206;6.888;2023-06-22T10:58:20;10.57;;;8.60;;
5245;SDS011;54412;51.206;6.888;2023-06-22T11:00:45;19.60;;;10.73;;
5245;SDS011;54412;51.206;6.888;2023-06-22T11:03:11;16.03;;;10.97;;
5245;SDS011;54412;51.206;6.888;2023-06-22T11:05:39;16.60;;;13.03;;
5245;SDS011;54412;51.206;6.888;2023-06-22T11:08:05;17.20;;;11.93;;
5245;SDS011;54412;51.206;6.888;2023-06-22T11:10:30;16.80;;;11.40;;
5245;SDS011;54412;51.206;6.888;2023-06-22T11:12:56;26.57;;;12.47;;
5245;SDS011;54412;51.206;6.888;2023-06-22T11:15:22;17.83;;;12.20;;
5245;SDS011;54412;51.206;6.888;2023-06-22T11:17:49;18.77;;;12.37;;
5245;SDS011;54412;51.206;6.888;2023-06-22T11:20:15;16.77;;;11.10;;
5245;SDS011;54412;51.206;6.888;2023-06-22T11:22:41;18.47;;;12.07;;
5245;SDS011;54412;51.206;6.888;2023-06-22T11:25:07;18.73;;;12.57;;
5245;SDS011;54412;51.206;6.888;2023-06-22T11:27:34;22.00;;;12.47;;
5245;SDS011;54412;51.206;6.888;2023-06-22T11:30:00;18.30;;;12.57;;
5245;SDS011;54412;51.206;6.888;2023-06-22T11:32:26;19.40;;;12.47;;
5245;SDS011;54412;51.206;6.888;2023-06-22T11:34:51;13.40;;;11.23;;
5245;SDS011;54412;51.206;6.888;2023-06-22T11:37:17;14.90;;;10.43;;
5245;SDS011;54412;51.206;6.888;2023-06-22T11:39:43;12.47;;;10.27;;
5245;SDS011;54412;51.206;6.888;2023-06-22T11:42:08;14.60;;;9.90;;
5245;SDS011;54412;51.206;6.888;2023-06-22T11:44:35;13.03;;;9.03;;
5245;SDS011;54412;51.206;6.888;2023-06-22T11:47:01;11.30;;;8.93;;
5245;SDS011;54412;51.206;6.888;2023-06-22T11:49:28;9.80;;;8.73;;
5245;SDS011;54412;51.206;6.888;2023-06-22T11:51:56;12.47;;;8.90;;
5245;SDS011;54412;51.206;6.888;2023-06-22T11:54:22;9.60;;;8.20;;
5245;SDS011;54412;51.206;6.888;2023-06-22T11:56:47;12.33;;;8.57;;
5245;SDS011;54412;51.206;6.888;2023-06-22T11:59:13;13.00;;;8.30;;
5245;SDS011;54412;51.206;6.888;2023-06-22T12:01:39;9.60;;;8.63;;
5245;SDS011;54412;51.206;6.888;2023-06-22T12:04:04;12.10;;;9.60;;
5245;SDS011;54412;51.206;6.888;2023-06-22T12:06:31;17.33;;;11.03;;
5245;SDS011;54412;51.206;6.888;2023-06-22T12:08:58;14.97;;;11.83;;
5245;SDS011;54412;51.206;6.888;2023-06-22T12:11:24;15.20;;;12.30;;
5245;SDS011;54412;51.206;6.888;2023-06-22T12:13:49;19.60;;;13.80;;
5245;SDS011;54412;51.206;6.888;2023-06-22T12:16:15;15.87;;;14.30;;
5245;SDS011;54412;51.206;6.888;2023-06-22T12:18:41;21.13;;;15.80;;
5245;SDS011;54412;51.206;6.888;2023-06-22T12:21:07;29.87;;;16.20;;
5245;SDS011;54412;51.206;6.888;2023-06-22T12:23:32;18.70;;;15.80;;
5245;SDS011;54412;51.206;6.888;2023-06-22T12:25:58;25.20;;;15.67;;
5245;SDS011;54412;51.206;6.888;2023-06-22T12:28:25;24.50;;;16.40;;
5245;SDS011;54412;51.206;6.888;2023-06-22T12:30:50;19.30;;;15.20;;
5245;SDS011;54412;51.206;6.888;2023-06-22T12:33:16;22.47;;;15.20;;
5245;SDS011;54412;51.206;6.888;2023-06-22T12:35:42;19.63;;;14.03;;
5245;SDS011;54412;51.206;6.888;2023-06-22T12:38:10;24.93;;;14.00;;
5245;SDS011;54412;51.206;6.888;2023-06-22T12:40:36;16.87;;;14.67;;
5245;SDS011;54412;51.206;6.888;2023-06-22T12:43:01;21.60;;;16.03;;
5245;SDS011;54412;51.206;6.888;2023-06-22T12:45:27;17.07;;;15.10;;
5245;SDS011;54412;51.206;6.888;2023-06-22T12:47:56;16.03;;;14.20;;
5245;SDS011;54412;51.206;6.888;2023-06-22T12:50:22;20.63;;;15.67;;
5245;SDS011;54412;51.206;6.888;2023-06-22T12:52:48;16.13;;;14.53;;
5245;SDS011;54412;51.206;6.888;2023-06-22T12:55:13;17.40;;;15.53;;
5245;SDS011;54412;51.206;6.888;2023-06-22T12:57:39;16.70;;;13.63;;
5245;SDS011;54412;51.206;6.888;2023-06-22T13:00:05;19.93;;;16.20;;
5245;SDS011;54412;51.206;6.888;2023-06-22T13:02:34;16.50;;;14.90;;
5245;SDS011;54412;51.206;6.888;2023-06-22T13:05:00;17.23;;;15.50;;
5245;SDS011;54412;51.206;6.888;2023-06-22T13:07:27;16.20;;;14.27;;
5245;SDS011;54412;51.206;6.888;2023-06-22T13:09:53;16.00;;;14.47;;
5245;SDS011;54412;51.206;6.888;2023-06-22T13:12:19;17.20;;;14.97;;
5245;SDS011;54412;51.206;6.888;2023-06-22T13:14:45;17.53;;;15.70;;
5245;SDS011;54412;51.206;6.888;2023-06-22T13:17:12;17.23;;;14.30;;
5245;SDS011;54412;51.206;6.888;2023-06-22T13:19:39;15.83;;;14.13;;
5245;SDS011;54412;51.206;6.888;2023-06-22T13:22:05;19.00;;;14.83;;
5245;SDS011;54412;51.206;6.888;2023-06-22T13:24:54;19.27;;;15.80;;
5245;SDS011;54412;51.206;6.888;2023-06-22T13:27:20;17.43;;;15.63;;
5245;SDS011;54412;51.206;6.888;2023-06-22T13:29:46;19.90;;;14.23;;
5245;SDS011;54412;51.206;6.888;2023-06-22T13:32:11;19.77;;;16.67;;
5245;SDS011;54412;51.206;6.888;2023-06-22T13:34:37;17.17;;;15.00;;
5245;SDS011;54412;51.206;6.888;2023-06-22T13:37:03;16.13;;;14.43;;
5245;SDS011;54412;51.206;6.888;2023-06-22T13:39:29;15.23;;;13.73;;
5245;SDS011;54412;51.206;6.888;2023-06-22T13:41:55;14.90;;;13.50;;
5245;SDS011;54412;51.206;6.888;2023-06-22T13:44:21;15.33;;;13.73;;
5245;SDS011;54412;51.206;6.888;2023-06-22T13:46:47;14.77;;;13.27;;
5245;SDS011;54412;51.206;6.888;2023-06-22T13:49:13;15.23;;;13.33;;
5245;SDS011;54412;51.206;6.888;2023-06-22T13:51:38;13.77;;;11.30;;
5245;SDS011;54412;51.206;6.888;2023-06-22T13:54:04;13.73;;;12.13;;
5245;SDS011;54412;51.206;6.888;2023-06-22T13:56:29;14.10;;;12.70;;
5245;SDS011;54412;51.206;6.888;2023-06-22T13:58:55;18.70;;;12.93;;
5245;SDS011;54412;51.206;6.888;2023-06-22T14:01:21;13.90;;;12.50;;
5245;SDS011;54412;51.206;6.888;2023-06-22T14:03:47;16.53;;;12.47;;
5245;SDS011;54412;51.206;6.888;2023-06-22T14:06:13;24.57;;;12.37;;
5245;SDS011;54412;51.206;6.888;2023-06-22T14:08:39;12.60;;;11.30;;
5245;SDS011;54412;51.206;6.888;2023-06-22T14:11:04;14.50;;;12.00;;
5245;SDS011;54412;51.206;6.888;2023-06-22T14:13:30;13.67;;;10.43;;
5245;SDS011;54412;51.206;6.888;2023-06-22T14:15:56;13.77;;;12.37;;
5245;SDS011;54412;51.206;6.888;2023-06-22T14:18:21;12.77;;;11.57;;
5245;SDS011;54412;51.206;6.888;2023-06-22T14:20:48;14.37;;;12.60;;
5245;SDS011;54412;51.206;6.888;2023-06-22T14:23:14;16.20;;;11.80;;
5245;SDS011;54412;51.206;6.888;2023-06-22T14:25:40;13.93;;;12.60;;
5245;SDS011;54412;51.206;6.888;2023-06-22T14:28:06;13.60;;;11.77;;
5245;SDS011;54412;51.206;6.888;2023-06-22T14:30:31;12.70;;;10.10;;
5245;SDS011;54412;51.206;6.888;2023-06-22T14:32:57;14.37;;;12.60;;
5245;SDS011;54412;51.206;6.888;2023-06-22T14:35:23;13.63;;;12.23;;
5245;SDS011;54412;51.206;6.888;2023-06-22T14:37:49;19.60;;;12.17;;
5245;SDS011;54412;51.206;6.888;2023-06-22T14:40:15;12.97;;;11.50;;
5245;SDS011;54412;51.206;6.888;2023-06-22T14:42:41;15.63;;;12.83;;
5245;SDS011;54412;51.206;6.888;2023-06-22T14:45:07;14.00;;;12.00;;
5245;SDS011;54412;51.206;6.888;2023-06-22T14:47:33;15.23;;;13.63;;
5245;SDS011;54412;51.206;6.888;2023-06-22T14:49:58;14.57;;;13.07;;
5245;SDS011;54412;51.206;6.888;2023-06-22T14:52:25;12.87;;;11.57;;
5245;SDS011;54412;51.206;6.888;2023-06-22T14:54:52;12.57;;;11.27;;
5245;SDS011;54412;51.206;6.888;2023-06-22T14:57:18;17.10;;;11.20;;